Terminal Aerodrome Forecast
Issued by NWS Upton, NY

Home | Current Version | Previous Version | Text Only | Print | Product List | Glossary On
Versions: 1 2 3 4 5 6 7 8 9 10 11 12 13 14 15 16 17 18 19 20 21 22 23 24 25 26 27 28 29 30 31 32 33
000
FTUS41 KOKX 281747
TAFBDR
TAF
KBDR 281747Z 2818/2918 19010KT P6SM SCT060 BKN200
     FM290300 VRB03KT 6SM HZ VCSH SCT030 BKN090
     FM290800 VRB03KT 3SM SHRA SCT005 BKN010
      TEMPO 2908/2911 1SM TSRA OVC005CB
     FM291100 07010KT 2SM SHRA BR OVC010 PROB30 2911/2915 1SM +TSRA
      OVC005CB
     FM291700 35012G18KT 5SM -RA BR OVC015=

USA.gov is the U.S. government's official web portal to all federal, state and local government web resources and services.